createdAt,value
2018-12-09T00:00:39.487Z,9.40
2018-12-09T00:03:10.231Z,9.50
2018-12-09T00:05:40.891Z,9.70
2018-12-09T00:08:11.627Z,9.70
2018-12-09T00:10:40.262Z,9.70
2018-12-09T00:13:08.943Z,9.90
2018-12-09T00:15:39.589Z,10.00
2018-12-09T00:18:08.209Z,10.00
2018-12-09T00:20:36.590Z,10.10
2018-12-09T00:23:05.070Z,10.00
2018-12-09T00:25:33.526Z,10.00
2018-12-09T00:28:01.926Z,10.00
2018-12-09T00:30:30.314Z,10.00
2018-12-09T00:32:58.908Z,10.10
2018-12-09T00:35:27.302Z,10.20
2018-12-09T00:37:55.665Z,10.20
2018-12-09T00:40:24.016Z,10.20
2018-12-09T00:42:52.338Z,10.10
2018-12-09T00:45:20.703Z,10.20
2018-12-09T00:47:49.142Z,10.00
2018-12-09T00:50:17.510Z,10.00
2018-12-09T00:52:45.920Z,10.10
2018-12-09T00:55:14.306Z,9.90
2018-12-09T00:57:42.633Z,9.70
2018-12-09T01:00:13.020Z,9.60
2018-12-09T01:02:42.987Z,9.00
2018-12-09T01:05:11.531Z,8.70
2018-12-09T01:07:40.309Z,8.70
2018-12-09T01:10:08.851Z,8.80
2018-12-09T01:12:37.214Z,9.20
2018-12-09T01:15:06.157Z,9.50
2018-12-09T01:17:34.530Z,9.40
2018-12-09T01:20:02.999Z,9.30
2018-12-09T01:22:31.527Z,9.30
2018-12-09T01:24:59.850Z,9.50
2018-12-09T01:27:28.242Z,9.60
2018-12-09T01:29:56.609Z,9.40
2018-12-09T01:32:25.645Z,9.50
2018-12-09T01:34:54.013Z,9.40
2018-12-09T01:37:22.418Z,9.50
2018-12-09T01:39:51.079Z,9.50
2018-12-09T01:42:19.433Z,10.00
2018-12-09T01:44:47.754Z,10.00
2018-12-09T01:47:16.075Z,10.10
2018-12-09T01:49:45.682Z,10.00
2018-12-09T01:52:14.022Z,9.60
2018-12-09T01:54:42.401Z,9.30
2018-12-09T01:57:10.734Z,9.20
2018-12-09T01:59:39.184Z,9.00
2018-12-09T02:02:07.718Z,8.80
2018-12-09T02:04:36.055Z,8.80
2018-12-09T02:07:04.774Z,8.90
2018-12-09T02:09:33.115Z,8.80
2018-12-09T02:12:01.509Z,8.70
2018-12-09T02:14:30.188Z,8.50
2018-12-09T02:16:58.510Z,8.30
2018-12-09T02:19:27.171Z,8.40
2018-12-09T02:21:55.617Z,8.40
2018-12-09T02:24:24.095Z,8.40
2018-12-09T02:26:52.558Z,8.60
2018-12-09T02:29:20.957Z,8.30
2018-12-09T02:31:49.305Z,7.90
2018-12-09T02:34:17.672Z,7.80
2018-12-09T02:36:46.163Z,7.50
2018-12-09T02:39:14.509Z,7.60
2018-12-09T02:41:42.925Z,8.00
2018-12-09T02:44:11.339Z,8.00
2018-12-09T02:46:39.725Z,8.10
2018-12-09T02:49:08.067Z,8.10
2018-12-09T02:51:36.717Z,8.10
2018-12-09T02:54:05.091Z,8.20
2018-12-09T02:56:33.424Z,8.10
2018-12-09T02:59:01.773Z,8.00
2018-12-09T03:01:30.410Z,8.10
2018-12-09T03:03:58.770Z,8.00
2018-12-09T03:06:27.386Z,8.10
2018-12-09T03:08:55.725Z,8.20
